Time;durP1;ratioP1;P1;durP2;ratioP2;P2;SDS_P1;SDS_P2;PMS_P1;PMS_P2;Temp;Humidity;BMP_temperature;BMP_pressure;BME280_temperature;BME280_humidity;BME280_pressure;Samples;Min_cycle;Max_cycle;Signal;HPM_P1;HPM_P2
2022/03/27 00:01:19;;;;;;;1.05;0.70;;;16.00;60.40;;;;;;5091822;28;20441;-70
2022/03/27 00:03:45;;;;;;;1.33;0.63;;;16.00;60.40;;;;;;5076879;28;20455;-70
2022/03/27 00:06:11;;;;;;;1.35;0.60;;;16.00;60.40;;;;;;5094770;28;20069;-70
2022/03/27 00:08:36;;;;;;;1.65;0.85;;;16.00;60.40;;;;;;5094854;28;20636;-70
2022/03/27 00:13:47;;;;;;;1.00;0.80;;;16.00;60.50;;;;;;5094686;28;20083;-71
2022/03/27 00:16:12;;;;;;;0.70;0.50;;;16.00;60.60;;;;;;5094856;28;20079;-70
2022/03/27 00:18:38;;;;;;;1.45;1.00;;;15.90;60.60;;;;;;5077373;28;20063;-70
2022/03/27 00:21:08;;;;;;;1.73;1.10;;;15.90;60.80;;;;;;5097024;28;20079;-70
2022/03/27 00:23:34;;;;;;;1.58;1.10;;;15.80;60.90;;;;;;5097903;28;20123;-70
2022/03/27 00:26:00;;;;;;;1.20;1.00;;;15.80;61.20;;;;;;5080219;28;20086;-71
2022/03/27 00:28:31;;;;;;;1.55;1.00;;;15.70;61.30;;;;;;5098187;28;20054;-70
2022/03/27 00:31:07;;;;;;;2.30;1.45;;;15.70;61.40;;;;;;5098008;28;20044;-70
2022/03/27 00:33:35;;;;;;;2.55;1.10;;;15.70;61.40;;;;;;5097918;28;20161;-70
2022/03/27 00:36:02;;;;;;;1.95;1.08;;;15.70;61.40;;;;;;5098360;28;20044;-71
2022/03/27 00:38:29;;;;;;;1.45;1.10;;;15.70;61.30;;;;;;5097915;28;20048;-70
2022/03/27 00:40:55;;;;;;;2.97;1.13;;;15.70;61.50;;;;;;5097774;28;20511;-70
2022/03/27 00:43:23;;;;;;;2.47;1.23;;;15.60;61.50;;;;;;5097499;28;20048;-70
2022/03/27 00:45:49;;;;;;;1.95;1.20;;;15.60;61.50;;;;;;5094465;28;20363;-70
2022/03/27 00:48:19;;;;;;;1.40;1.10;;;15.50;61.60;;;;;;5097304;28;20127;-70
2022/03/27 00:50:46;;;;;;;2.25;1.10;;;15.50;61.60;;;;;;5098279;28;20131;-71
2022/03/27 00:53:12;;;;;;;2.47;1.20;;;15.50;61.70;;;;;;5097664;28;20351;-70
2022/03/27 00:55:38;;;;;;;1.65;1.10;;;15.50;61.80;;;;;;5097177;28;20051;-70
2022/03/27 00:58:05;;;;;;;4.03;1.95;;;15.50;61.70;;;;;;5097489;28;20420;-71
2022/03/27 01:00:43;;;;;;;3.45;1.98;;;15.40;61.70;;;;;;5097290;28;20039;-70
2022/03/27 01:03:11;;;;;;;3.00;1.55;;;15.40;61.80;;;;;;5097148;28;20052;-70
2022/03/27 01:05:38;;;;;;;1.83;1.40;;;15.40;61.70;;;;;;5097459;28;20169;-71
2022/03/27 01:08:10;;;;;;;3.20;2.10;;;15.40;61.70;;;;;;5080087;28;20105;-70
2022/03/27 01:10:36;;;;;;;2.72;1.77;;;15.40;61.70;;;;;;5097658;28;20047;-71
2022/03/27 01:13:18;;;;;;;3.55;1.92;;;15.40;61.60;;;;;;5097114;28;20097;-71
2022/03/27 01:15:53;;;;;;;2.28;1.42;;;15.40;61.60;;;;;;5097125;28;20058;-70
2022/03/27 01:18:20;;;;;;;2.42;1.50;;;15.40;61.70;;;;;;5097158;28;20122;-70
2022/03/27 01:20:46;;;;;;;4.32;2.17;;;15.30;61.70;;;;;;5096793;28;20044;-70
2022/03/27 01:23:13;;;;;;;4.40;1.98;;;15.30;61.60;;;;;;5097113;28;20462;-70
2022/03/27 01:25:41;;;;;;;3.92;1.90;;;15.30;62.30;;;;;;5097190;28;20382;-70
2022/03/27 01:28:10;;;;;;;2.60;1.92;;;15.30;61.80;;;;;;5096818;28;20459;-70
2022/03/27 01:30:36;;;;;;;4.50;2.03;;;15.30;61.80;;;;;;5096098;28;20050;-69
2022/03/27 01:33:03;;;;;;;3.88;2.35;;;15.30;61.80;;;;;;5097342;28;20083;-70
2022/03/27 01:35:29;;;;;;;3.28;2.15;;;15.30;61.80;;;;;;5096395;28;20048;-70
2022/03/27 01:37:55;;;;;;;3.45;1.90;;;15.30;61.80;;;;;;5096909;28;20096;-70
2022/03/27 01:40:21;;;;;;;5.10;2.03;;;15.30;61.80;;;;;;5096584;28;20429;-70
2022/03/27 01:42:46;;;;;;;4.78;1.70;;;15.20;61.80;;;;;;5096629;28;20047;-70
2022/03/27 01:45:12;;;;;;;5.68;2.08;;;15.30;61.90;;;;;;5095866;28;20130;-71
2022/03/27 01:47:38;;;;;;;4.72;2.30;;;15.30;61.90;;;;;;5079142;28;20063;-70
2022/03/27 01:50:06;;;;;;;2.55;1.73;;;15.20;61.80;;;;;;5096598;28;20052;-70
2022/03/27 01:52:32;;;;;;;3.70;1.83;;;15.20;61.90;;;;;;5078701;28;20059;-70
2022/03/27 01:54:58;;;;;;;5.57;2.38;;;15.20;61.80;;;;;;5096685;28;20074;-70
2022/03/27 01:57:24;;;;;;;4.43;2.30;;;15.20;61.90;;;;;;5095967;28;20122;-70
2022/03/27 01:59:50;;;;;;;4.93;2.20;;;15.20;61.90;;;;;;5096441;28;20051;-70
2022/03/27 02:02:23;;;;;;;4.65;2.13;;;15.10;61.90;;;;;;5095866;28;20454;-70
2022/03/27 02:04:50;;;;;;;3.63;1.73;;;15.20;61.90;;;;;;5095871;28;20497;-70
2022/03/27 02:07:16;;;;;;;5.07;2.10;;;15.10;61.90;;;;;;5096651;28;20056;-71
2022/03/27 02:09:41;;;;;;;4.15;2.03;;;15.10;61.90;;;;;;5096029;28;20344;-70
2022/03/27 02:12:08;;;;;;;3.70;2.00;;;15.10;61.90;;;;;;5096249;28;20032;-70
2022/03/27 02:14:33;;;;;;;3.75;2.00;;;15.10;61.90;;;;;;5096107;28;20032;-70
2022/03/27 02:16:59;;;;;;;4.60;1.70;;;15.10;61.90;;;;;;5095689;28;20036;-70
2022/03/27 02:19:25;;;;;;;5.05;1.83;;;15.10;61.90;;;;;;5096009;28;20052;-70
2022/03/27 02:21:51;;;;;;;5.45;2.10;;;15.10;61.90;;;;;;5077994;28;20059;-70
2022/03/27 02:24:17;;;;;;;3.90;1.50;;;15.10;61.90;;;;;;5096447;28;20044;-70
2022/03/27 02:26:45;;;;;;;5.13;1.88;;;15.10;61.90;;;;;;5096511;28;20062;-70
2022/03/27 02:29:13;;;;;;;3.45;1.83;;;15.10;61.90;;;;;;5096369;28;20391;-70
2022/03/27 02:31:39;;;;;;;4.88;2.22;;;15.10;61.90;;;;;;5095447;28;20044;-70
2022/03/27 02:34:05;;;;;;;2.72;1.42;;;15.00;61.90;;;;;;5095547;28;20317;-70
2022/03/27 02:36:31;;;;;;;6.10;1.80;;;15.00;61.90;;;;;;5095410;28;20126;-70
2022/03/27 02:38:57;;;;;;;4.43;1.90;;;15.00;61.90;;;;;;5095634;28;20044;-70
2022/03/27 02:41:23;;;;;;;3.67;1.42;;;15.00;61.90;;;;;;5096127;28;20044;-70
2022/03/27 02:43:48;;;;;;;3.75;1.83;;;15.00;61.90;;;;;;5094222;28;20048;-70
2022/03/27 02:46:14;;;;;;;3.80;1.55;;;15.00;61.90;;;;;;5095468;28;20338;-71
2022/03/27 02:48:40;;;;;;;2.92;1.70;;;15.00;61.90;;;;;;5094934;28;20051;-71
2022/03/27 02:51:06;;;;;;;4.28;1.58;;;15.00;61.90;;;;;;5095382;28;20058;-70
2022/03/27 02:53:32;;;;;;;3.67;1.60;;;15.00;62.50;;;;;;5095487;28;20066;-70
2022/03/27 02:55:58;;;;;;;3.97;1.70;;;15.00;62.00;;;;;;5095403;28;20157;-70
2022/03/27 02:58:24;;;;;;;2.95;1.67;;;15.00;62.00;;;;;;5095086;28;20056;-70
2022/03/27 03:00:49;;;;;;;3.63;1.70;;;15.00;62.00;;;;;;5094912;28;20044;-70
2022/03/27 03:03:15;;;;;;;3.30;1.40;;;15.00;62.00;;;;;;5071085;28;20055;-70
2022/03/27 03:05:42;;;;;;;3.95;1.73;;;14.90;62.00;;;;;;5074986;28;20423;-70
2022/03/27 03:08:11;;;;;;;3.50;1.58;;;14.90;61.90;;;;;;5075496;28;20121;-70
2022/03/27 03:10:40;;;;;;;5.80;2.10;;;14.90;61.90;;;;;;5075057;28;20162;-69
2022/03/27 03:13:07;;;;;;;4.25;1.88;;;14.90;62.00;;;;;;5074827;28;20055;-70
2022/03/27 03:15:33;;;;;;;4.00;1.30;;;14.80;62.00;;;;;;5074687;28;20048;-70
2022/03/27 03:18:00;;;;;;;4.57;1.20;;;14.90;62.10;;;;;;5075353;28;20052;-70
2022/03/27 03:20:26;;;;;;;5.28;1.38;;;14.90;62.10;;;;;;5075052;28;20051;-69
2022/03/27 03:22:51;;;;;;;4.90;1.25;;;14.80;62.10;;;;;;5075496;28;20036;-70
2022/03/27 03:25:17;;;;;;;6.00;1.85;;;14.80;62.10;;;;;;5074774;28;20047;-69
2022/03/27 03:27:43;;;;;;;4.72;1.70;;;14.80;62.10;;;;;;5074912;28;20076;-70
2022/03/27 03:30:10;;;;;;;3.25;1.20;;;14.80;62.20;;;;;;5076613;28;20137;-70
2022/03/27 03:32:36;;;;;;;9.25;2.40;;;14.80;62.10;;;;;;5094867;28;20532;-70
2022/03/27 03:35:04;;;;;;;4.35;1.73;;;14.80;62.10;;;;;;5095469;28;20051;-70
2022/03/27 03:37:29;;;;;;;8.95;1.77;;;14.70;62.10;;;;;;5095249;28;20036;-69
2022/03/27 03:39:55;;;;;;;6.63;1.85;;;14.80;62.10;;;;;;5095132;28;20454;-70
2022/03/27 03:42:22;;;;;;;5.60;1.80;;;14.70;62.10;;;;;;5094793;28;20044;-70
2022/03/27 03:44:47;;;;;;;4.82;1.27;;;14.70;62.00;;;;;;5094432;28;20095;-70
2022/03/27 03:47:14;;;;;;;5.93;1.48;;;14.70;62.00;;;;;;5094952;28;20084;-70
2022/03/27 03:49:39;;;;;;;8.25;1.75;;;14.80;62.10;;;;;;5094475;28;20439;-70
2022/03/27 03:52:06;;;;;;;5.72;1.70;;;14.70;62.00;;;;;;5095088;28;20058;-70
2022/03/27 03:54:34;;;;;;;4.45;1.60;;;14.70;62.00;;;;;;5096694;28;20115;-69
2022/03/27 03:57:02;;;;;;;5.35;1.52;;;14.70;62.00;;;;;;5098771;28;20109;-70
2022/03/27 03:59:28;;;;;;;7.75;1.60;;;14.70;62.10;;;;;;5078468;28;20122;-70
2022/03/27 04:01:53;;;;;;;5.65;1.67;;;14.70;62.10;;;;;;5097754;28;20126;-71
2022/03/27 04:04:19;;;;;;;5.88;1.48;;;14.70;62.00;;;;;;5081437;28;20090;-70
2022/03/27 04:06:45;;;;;;;3.38;1.30;;;14.70;62.00;;;;;;5099238;28;20048;-70
2022/03/27 04:09:11;;;;;;;5.85;1.52;;;14.60;61.90;;;;;;5098454;28;20085;-70
2022/03/27 04:11:36;;;;;;;6.07;1.58;;;14.70;61.90;;;;;;5099038;28;20087;-70
2022/03/27 04:14:02;;;;;;;8.65;1.75;;;14.60;61.90;;;;;;5098684;28;20070;-70
2022/03/27 04:16:28;;;;;;;4.50;1.70;;;14.60;61.80;;;;;;5098833;28;20164;-70
2022/03/27 04:18:54;;;;;;;7.22;1.98;;;14.60;61.80;;;;;;5098616;28;20048;-70
2022/03/27 04:21:20;;;;;;;5.75;1.88;;;14.60;61.80;;;;;;5098289;28;20324;-70
2022/03/27 04:23:45;;;;;;;10.43;2.17;;;14.60;61.70;;;;;;5098088;28;20122;-72
2022/03/27 04:26:12;;;;;;;7.40;1.38;;;14.60;61.70;;;;;;5098248;28;20044;-70
2022/03/27 04:28:37;;;;;;;6.80;1.77;;;14.50;61.70;;;;;;5097992;28;20122;-70
2022/03/27 04:31:03;;;;;;;4.97;1.70;;;14.50;61.70;;;;;;5097839;28;20402;-70
2022/03/27 04:33:29;;;;;;;5.00;2.00;;;14.50;61.70;;;;;;5097800;28;20044;-70
2022/03/27 04:35:55;;;;;;;6.22;2.03;;;14.50;61.70;;;;;;5098537;28;20047;-70
2022/03/27 04:38:20;;;;;;;5.82;1.75;;;14.50;61.70;;;;;;5098087;28;20046;-70
2022/03/27 04:40:46;;;;;;;5.93;1.73;;;14.50;61.70;;;;;;5097695;28;20127;-70
2022/03/27 04:43:12;;;;;;;6.35;1.83;;;14.50;61.70;;;;;;5096921;28;20036;-70
2022/03/27 04:45:38;;;;;;;7.13;1.95;;;14.50;61.80;;;;;;5097458;28;20051;-70
2022/03/27 04:48:04;;;;;;;8.13;1.80;;;14.50;61.70;;;;;;5079908;28;20052;-70
2022/03/27 04:50:30;;;;;;;5.35;1.55;;;14.40;61.60;;;;;;5097797;28;20052;-70
2022/03/27 04:52:56;;;;;;;8.95;2.20;;;14.40;61.60;;;;;;5098401;28;20040;-70
2022/03/27 04:55:22;;;;;;;7.85;2.25;;;14.40;61.70;;;;;;5080181;28;20131;-70
2022/03/27 04:57:48;;;;;;;7.75;2.15;;;14.40;61.80;;;;;;5097465;28;20059;-70
2022/03/27 05:00:14;;;;;;;5.97;2.00;;;14.30;61.80;;;;;;5097238;28;20122;-70
2022/03/27 05:02:41;;;;;;;9.50;1.95;;;14.40;61.80;;;;;;5097581;28;20086;-70
2022/03/27 05:05:10;;;;;;;6.22;1.85;;;14.40;61.90;;;;;;5097203;28;20047;-69
2022/03/27 05:07:37;;;;;;;7.28;2.15;;;14.30;61.80;;;;;;5097077;28;20355;-70
2022/03/27 05:10:04;;;;;;;7.70;1.83;;;14.30;61.70;;;;;;5079711;28;20050;-70
2022/03/27 05:12:30;;;;;;;9.57;2.08;;;14.30;61.80;;;;;;5097186;28;20051;-70
2022/03/27 05:14:56;;;;;;;12.05;2.70;;;14.30;61.90;;;;;;5079148;28;20048;-70
2022/03/27 05:17:22;;;;;;;7.63;2.20;;;14.20;61.90;;;;;;5062572;28;20087;-70
2022/03/27 05:19:48;;;;;;;8.95;3.08;;;14.30;62.00;;;;;;5078974;28;20099;-70
2022/03/27 05:22:15;;;;;;;7.72;2.53;;;14.30;62.00;;;;;;5096998;28;20433;-70
2022/03/27 05:24:41;;;;;;;7.60;2.17;;;14.30;62.00;;;;;;5097127;28;20059;-70
2022/03/27 05:27:06;;;;;;;11.43;2.63;;;14.20;61.90;;;;;;5097295;28;20428;-70
2022/03/27 05:29:32;;;;;;;9.10;2.15;;;14.20;62.00;;;;;;5093744;28;20032;-71
2022/03/27 05:31:58;;;;;;;11.52;2.55;;;14.20;62.10;;;;;;5091482;28;20123;-72
2022/03/27 05:34:24;;;;;;;10.52;2.72;;;14.30;62.10;;;;;;5093867;28;20040;-77
2022/03/27 05:36:50;;;;;;;10.70;3.47;;;14.30;61.60;;;;;;5062096;28;20108;-79
2022/03/27 05:39:17;;;;;;;17.77;2.97;;;14.30;61.10;;;;;;5095434;28;20100;-79
2022/03/27 05:41:43;;;;;;;17.88;4.85;;;14.30;60.50;;;;;;5081648;28;20037;-74
2022/03/27 05:44:09;;;;;;;19.70;3.72;;;14.40;60.10;;;;;;5073128;28;20071;-76
2022/03/27 05:46:35;;;;;;;18.85;4.50;;;14.40;59.80;;;;;;5076446;28;20377;-76
2022/03/27 05:49:01;;;;;;;15.65;3.50;;;14.40;59.30;;;;;;5075727;28;20067;-78
2022/03/27 05:51:26;;;;;;;16.73;4.32;;;14.40;58.60;;;;;;5076789;28;20059;-76
2022/03/27 05:53:52;;;;;;;17.23;4.45;;;14.40;59.00;;;;;;5093100;28;20455;-82
2022/03/27 05:56:18;;;;;;;21.83;4.55;;;14.40;58.90;;;;;;5062098;28;20132;-76
2022/03/27 05:58:44;;;;;;;14.73;4.25;;;14.40;58.60;;;;;;5092980;28;20117;-75
2022/03/27 06:01:09;;;;;;;16.25;4.38;;;14.40;58.70;;;;;;5077593;28;20040;-74
2022/03/27 06:03:35;;;;;;;19.15;4.10;;;14.40;59.50;;;;;;5095204;28;20124;-73
2022/03/27 06:06:02;;;;;;;17.00;3.33;;;14.40;59.70;;;;;;5096331;28;20133;-75
2022/03/27 06:08:27;;;;;;;14.00;3.58;;;14.50;59.50;;;;;;5095664;28;20051;-73
2022/03/27 06:10:53;;;;;;;16.70;3.70;;;14.70;59.80;;;;;;5094773;28;20143;-77
2022/03/27 06:13:19;;;;;;;12.30;3.63;;;14.90;59.70;;;;;;5095417;28;20352;-77
2022/03/27 06:15:46;;;;;;;14.25;3.63;;;15.20;60.00;;;;;;5077860;28;20040;-76
2022/03/27 06:18:12;;;;;;;16.58;3.53;;;15.40;60.20;;;;;;5076521;28;20118;-78
2022/03/27 06:20:39;;;;;;;21.75;3.65;;;15.60;60.00;;;;;;5095613;28;20043;-74
2022/03/27 06:23:06;;;;;;;22.83;4.00;;;15.70;60.10;;;;;;5095446;28;20054;-74
2022/03/27 06:25:33;;;;;;;18.98;3.67;;;15.80;60.40;;;;;;5095336;28;20375;-76
2022/03/27 06:27:59;;;;;;;18.00;3.53;;;15.90;60.60;;;;;;5095543;28;20524;-74
2022/03/27 06:30:27;;;;;;;15.68;3.58;;;16.00;60.60;;;;;;5078165;28;20122;-75
2022/03/27 06:32:54;;;;;;;22.75;4.03;;;16.00;60.60;;;;;;5095642;28;20040;-77
2022/03/27 06:35:22;;;;;;;22.90;3.53;;;16.10;60.70;;;;;;5095079;28;20036;-75
2022/03/27 06:37:48;;;;;;;16.63;3.35;;;16.10;60.80;;;;;;5073916;28;20044;-76
2022/03/27 06:40:16;;;;;;;17.45;3.83;;;16.10;61.20;;;;;;5077183;28;20059;-74
2022/03/27 06:42:43;;;;;;;15.48;3.22;;;16.10;61.40;;;;;;5095663;28;20075;-78
2022/03/27 06:45:14;;;;;;;15.68;2.95;;;16.10;61.50;;;;;;5095106;28;20039;-74
2022/03/27 06:47:42;;;;;;;20.73;4.05;;;16.10;61.80;;;;;;5077259;28;20071;-73
2022/03/27 06:50:08;;;;;;;18.02;4.15;;;16.10;61.70;;;;;;5092564;28;20060;-73
2022/03/27 06:52:35;;;;;;;21.08;4.00;;;16.10;61.90;;;;;;5077250;28;20051;-72
2022/03/27 06:55:02;;;;;;;15.27;3.55;;;16.20;62.10;;;;;;5077571;28;20145;-73
2022/03/27 06:57:29;;;;;;;17.55;3.53;;;16.20;62.10;;;;;;5094789;28;20515;-72
2022/03/27 07:05:24;;;;;;;19.85;4.47;;;16.50;62.30;;;;;;5094605;28;20040;-74
2022/03/27 07:07:51;;;;;;;13.52;2.60;;;16.60;62.30;;;;;;5077767;28;20120;-74
2022/03/27 07:10:16;;;;;;;14.30;3.63;;;16.70;62.10;;;;;;5094428;28;20137;-74
2022/03/27 07:12:44;;;;;;;17.00;3.40;;;16.80;62.20;;;;;;5095093;28;20132;-73
2022/03/27 07:15:10;;;;;;;13.88;2.80;;;16.80;62.10;;;;;;5094625;28;20048;-74
2022/03/27 07:17:50;;;;;;;12.35;3.50;;;16.90;62.10;;;;;;5077185;28;20062;-73
2022/03/27 07:20:18;;;;;;;12.40;3.42;;;17.00;62.00;;;;;;5094706;28;20107;-75
2022/03/27 07:22:44;;;;;;;13.75;2.78;;;17.10;61.80;;;;;;5094529;28;20463;-76
2022/03/27 07:25:10;;;;;;;12.23;2.25;;;17.10;61.60;;;;;;5083191;28;20130;-77
2022/03/27 07:27:37;;;;;;;14.80;3.67;;;17.20;61.60;;;;;;5087232;28;20086;-77
2022/03/27 07:30:06;;;;;;;12.80;2.95;;;17.20;61.50;;;;;;5079474;28;20044;-76
2022/03/27 07:32:31;;;;;;;14.82;3.38;;;17.20;61.40;;;;;;5098123;28;20078;-76
2022/03/27 07:34:57;;;;;;;21.58;3.92;;;17.20;61.40;;;;;;5081027;28;20200;-73
2022/03/27 07:37:24;;;;;;;13.40;2.90;;;17.20;61.40;;;;;;5077404;28;20463;-75
2022/03/27 07:39:50;;;;;;;18.67;3.70;;;17.20;61.40;;;;;;5086145;28;20047;-73
2022/03/27 07:42:15;;;;;;;21.40;3.80;;;17.20;61.60;;;;;;5077246;28;20059;-72
2022/03/27 07:44:41;;;;;;;20.02;4.10;;;17.20;61.70;;;;;;5098077;28;20122;-79
2022/03/27 07:47:07;;;;;;;16.08;3.75;;;17.20;61.40;;;;;;5080402;28;20119;-71
2022/03/27 07:49:33;;;;;;;24.27;3.72;;;17.20;61.10;;;;;;5074017;28;20053;-77
2022/03/27 07:52:00;;;;;;;23.48;3.60;;;17.40;60.90;;;;;;5078086;28;20052;-78
2022/03/27 07:54:26;;;;;;;21.92;4.85;;;17.50;60.70;;;;;;5078130;28;20048;-74
2022/03/27 07:56:52;;;;;;;19.00;3.88;;;17.60;60.50;;;;;;5078383;28;20059;-77
2022/03/27 07:59:18;;;;;;;16.77;3.53;;;17.70;60.20;;;;;;5078256;28;20044;-77
2022/03/27 08:01:44;;;;;;;23.30;3.70;;;17.70;60.20;;;;;;5073492;28;20448;-76
2022/03/27 08:04:10;;;;;;;20.40;3.88;;;17.80;60.20;;;;;;5058230;28;20443;-75
2022/03/27 08:06:36;;;;;;;18.70;3.35;;;17.90;60.30;;;;;;5064979;28;20109;-74
2022/03/27 08:09:04;;;;;;;19.20;3.60;;;17.90;60.40;;;;;;5078144;28;20455;-74
2022/03/27 08:11:30;;;;;;;21.58;3.40;;;17.90;60.30;;;;;;5077890;28;20422;-77
2022/03/27 08:14:01;;;;;;;21.70;4.18;;;17.90;60.40;;;;;;5076615;28;20051;-77
2022/03/27 08:16:27;;;;;;;19.15;2.92;;;17.90;60.60;;;;;;5077694;28;20450;-75
2022/03/27 08:18:53;;;;;;;18.98;3.40;;;17.90;60.50;;;;;;5077327;28;20032;-76
2022/03/27 08:21:19;;;;;;;19.20;4.03;;;17.90;60.50;;;;;;5072306;28;20135;-75
2022/03/27 08:23:45;;;;;;;13.07;3.47;;;18.00;60.50;;;;;;5077552;28;20055;-76
2022/03/27 08:28:55;;;;;;;;;;;18.20;60.40;;;;;;5077123;28;20056;-71
2022/03/27 08:31:21;;;;;;;15.52;3.22;;;18.00;56.20;;;;;;5077484;28;20232;-71
2022/03/27 08:33:48;;;;;;;19.15;3.50;;;18.10;60.20;;;;;;5072920;28;20064;-75
2022/03/27 08:36:14;;;;;;;16.02;3.03;;;18.20;60.30;;;;;;5076978;28;20056;-72
2022/03/27 08:38:39;;;;;;;21.17;3.30;;;18.30;60.30;;;;;;5077583;28;20044;-72
2022/03/27 08:41:05;;;;;;;18.30;3.15;;;18.30;60.20;;;;;;5075372;28;20086;-68
2022/03/27 08:43:33;;;;;;;20.40;3.28;;;18.40;60.10;;;;;;5076348;28;20476;-74
2022/03/27 08:45:59;;;;;;;18.00;3.72;;;18.50;60.10;;;;;;5076707;28;20056;-74
2022/03/27 08:48:29;;;;;;;19.67;4.07;;;18.50;60.20;;;;;;5080549;28;20063;-75
2022/03/27 08:51:08;;;;;;;19.63;3.35;;;18.60;59.90;;;;;;5096839;28;20047;-73
2022/03/27 08:54:01;;;;;;;21.25;4.03;;;18.60;58.80;;;;;;5082729;28;20044;-74
2022/03/27 08:56:30;;;;;;;22.58;4.60;;;18.50;57.70;;;;;;5097621;28;20048;-74
2022/03/27 08:59:05;;;;;;;22.90;4.03;;;18.40;58.00;;;;;;5093947;28;20085;-76
2022/03/27 09:01:32;;;;;;;18.38;4.70;;;18.40;58.20;;;;;;5091440;28;20353;-75
2022/03/27 09:03:58;;;;;;;20.05;4.20;;;18.30;57.70;;;;;;5097170;28;20126;-74
2022/03/27 09:06:25;;;;;;;15.10;4.18;;;18.30;57.70;;;;;;5097236;28;20150;-76
2022/03/27 09:08:53;;;;;;;15.00;3.83;;;18.20;58.10;;;;;;5097632;28;20093;-76
2022/03/27 09:11:19;;;;;;;19.30;5.03;;;18.20;58.30;;;;;;5096540;28;20126;-77
2022/03/27 09:13:49;;;;;;;18.00;4.05;;;18.10;58.70;;;;;;5096628;28;20058;-75
2022/03/27 09:16:16;;;;;;;12.68;4.30;;;18.10;59.00;;;;;;5078730;28;20056;-76
2022/03/27 09:18:51;;;;;;;15.20;4.03;;;18.00;59.30;;;;;;5078633;28;20109;-78
2022/03/27 09:21:23;;;;;;;17.73;3.45;;;18.00;59.40;;;;;;5063113;28;20152;-78
2022/03/27 09:23:58;;;;;;;15.88;4.30;;;17.90;59.30;;;;;;5078727;28;20048;-76
2022/03/27 09:26:24;;;;;;;16.95;3.47;;;17.90;59.30;;;;;;5096739;28;20052;-77
2022/03/27 09:28:53;;;;;;;20.58;6.32;;;17.90;59.50;;;;;;5096713;28;20040;-75
2022/03/27 09:31:19;;;;;;;24.23;6.07;;;17.80;59.70;;;;;;5096047;28;20130;-74
2022/03/27 09:33:53;;;;;;;15.88;4.88;;;17.80;59.60;;;;;;5078781;28;20118;-74
2022/03/27 09:36:23;;;;;;;19.73;5.00;;;17.70;59.40;;;;;;5078726;28;20056;-74
2022/03/27 09:39:22;;;;;;;14.55;3.75;;;17.70;59.40;;;;;;5078675;28;20063;-71
2022/03/27 09:42:03;;;;;;;28.48;5.32;;;17.70;59.50;;;;;;5096681;28;20056;-74
2022/03/27 09:44:29;;;;;;;17.15;4.70;;;17.70;59.90;;;;;;5096525;28;20039;-74
2022/03/27 09:47:06;;;;;;;19.75;4.88;;;17.70;60.30;;;;;;5095960;28;20044;-75
2022/03/27 09:49:34;;;;;;;19.42;4.68;;;17.70;60.70;;;;;;5074559;28;20068;-75
2022/03/27 09:52:15;;;;;;;20.10;5.00;;;17.70;61.00;;;;;;5075785;28;20049;-74
2022/03/27 09:54:45;;;;;;;16.77;4.25;;;17.70;61.10;;;;;;5075811;28;20045;-75
2022/03/27 09:57:26;;;;;;;17.35;3.97;;;17.70;61.10;;;;;;5076107;28;20093;-73
2022/03/27 09:59:58;;;;;;;14.82;4.50;;;17.70;60.70;;;;;;5075511;28;20048;-75
2022/03/27 10:02:27;;;;;;;19.75;4.45;;;17.70;60.50;;;;;;5075488;28;20056;-76
2022/03/27 10:04:57;;;;;;;15.43;4.00;;;17.70;60.50;;;;;;5074876;28;20115;-76
2022/03/27 10:07:25;;;;;;;12.80;3.72;;;17.70;60.40;;;;;;5075927;28;20045;-75
2022/03/27 10:09:55;;;;;;;12.63;3.67;;;17.70;60.50;;;;;;5058377;28;20052;-75
2022/03/27 10:12:29;;;;;;;16.08;4.18;;;17.70;60.30;;;;;;5075889;28;20063;-72
2022/03/27 10:15:00;;;;;;;19.08;4.57;;;17.70;60.30;;;;;;5074504;28;20059;-72
2022/03/27 10:17:27;;;;;;;21.98;4.40;;;17.60;59.90;;;;;;5075282;28;20150;-74
2022/03/27 10:20:15;;;;;;;15.00;4.43;;;17.60;59.90;;;;;;5075039;28;20045;-71
2022/03/27 10:22:47;;;;;;;12.10;3.38;;;17.60;59.70;;;;;;5075787;28;20051;-78
2022/03/27 10:25:16;;;;;;;17.20;3.97;;;17.60;59.30;;;;;;5074891;28;20063;-77
2022/03/27 10:27:47;;;;;;;11.27;3.42;;;17.50;58.90;;;;;;5075447;28;20360;-75
2022/03/27 10:30:15;;;;;;;15.25;3.95;;;17.50;58.90;;;;;;5075479;28;20040;-74
2022/03/27 10:32:43;;;;;;;11.02;2.78;;;17.40;58.70;;;;;;5075154;28;20040;-75
2022/03/27 10:35:27;;;;;;;14.15;3.58;;;17.40;58.70;;;;;;5075234;28;20044;-76
2022/03/27 10:38:02;;;;;;;11.65;2.97;;;17.40;58.10;;;;;;5074587;28;20083;-79
2022/03/27 10:40:49;;;;;;;9.40;2.90;;;17.40;57.80;;;;;;5071199;28;20120;-74
2022/03/27 10:43:31;;;;;;;10.73;2.90;;;17.30;57.40;;;;;;5054572;28;20527;-76
2022/03/27 10:46:12;;;;;;;13.93;3.00;;;17.30;57.20;;;;;;5054163;28;20053;-74
2022/03/27 10:48:42;;;;;;;10.40;3.35;;;17.30;57.10;;;;;;5057268;28;20071;-77
2022/03/27 10:51:26;;;;;;;9.13;2.72;;;17.30;57.20;;;;;;5075114;28;20074;-76
2022/03/27 10:54:18;;;;;;;8.68;2.70;;;17.30;57.30;;;;;;5057364;28;20083;-75
2022/03/27 10:56:52;;;;;;;8.63;2.88;;;17.30;57.50;;;;;;5063974;28;20364;-77
2022/03/27 10:59:25;;;;;;;8.68;2.13;;;17.30;57.50;;;;;;5075193;28;20444;-77
2022/03/27 11:01:53;;;;;;;8.27;2.38;;;17.20;57.60;;;;;;5081965;28;20040;-78
2022/03/27 11:04:21;;;;;;;10.07;3.30;;;17.30;57.80;;;;;;5094863;28;20052;-78
2022/03/27 11:06:51;;;;;;;11.02;2.60;;;17.30;57.90;;;;;;5078379;28;20105;-76
2022/03/27 11:09:40;;;;;;;10.63;2.63;;;17.20;57.90;;;;;;5095993;28;20051;-76
2022/03/27 11:12:31;;;;;;;9.48;2.92;;;17.20;58.00;;;;;;5095213;28;20039;-75
2022/03/27 11:15:07;;;;;;;9.05;2.80;;;17.20;58.10;;;;;;5095256;28;20352;-77
2022/03/27 11:17:37;;;;;;;9.68;2.92;;;17.20;58.00;;;;;;5077623;28;20052;-77
2022/03/27 11:20:06;;;;;;;7.97;2.35;;;17.10;57.70;;;;;;5094558;28;20056;-77
2022/03/27 11:22:43;;;;;;;12.63;2.55;;;17.20;57.90;;;;;;5077563;28;20048;-77
2022/03/27 11:25:28;;;;;;;9.70;2.33;;;17.10;57.80;;;;;;5065035;28;20379;-76
2022/03/27 11:27:56;;;;;;;7.38;2.03;;;17.20;57.90;;;;;;5068363;28;20059;-77
2022/03/27 11:30:22;;;;;;;10.45;2.53;;;17.20;57.90;;;;;;5093318;28;20040;-77
2022/03/27 11:33:23;;;;;;;6.32;2.50;;;17.10;58.00;;;;;;5076573;28;20458;-77
2022/03/27 11:36:01;;;;;;;6.35;2.03;;;17.10;58.10;;;;;;5094671;28;20040;-77
2022/03/27 11:38:51;;;;;;;5.90;1.92;;;17.10;58.20;;;;;;5094799;28;20040;-76
2022/03/27 11:41:25;;;;;;;7.57;2.40;;;17.10;58.20;;;;;;5063874;28;20117;-77
2022/03/27 11:43:55;;;;;;;5.70;2.25;;;17.10;58.30;;;;;;5094889;28;20407;-76
2022/03/27 11:46:27;;;;;;;6.53;2.13;;;17.10;58.40;;;;;;5095103;28;20047;-76
2022/03/27 11:49:00;;;;;;;4.80;1.80;;;17.10;58.50;;;;;;5094591;28;20052;-75
2022/03/27 11:51:27;;;;;;;8.13;2.10;;;17.00;58.50;;;;;;5094929;28;20060;-74
2022/03/27 11:53:55;;;;;;;7.45;2.40;;;17.00;58.50;;;;;;5095003;28;20048;-77
2022/03/27 11:56:21;;;;;;;6.80;2.13;;;17.00;58.60;;;;;;5094949;28;20043;-74
2022/03/27 11:59:03;;;;;;;12.80;3.10;;;17.00;58.60;;;;;;5095265;28;20051;-76
2022/03/27 12:01:29;;;;;;;7.80;1.88;;;17.00;58.60;;;;;;5094466;28;20340;-75
2022/03/27 12:03:59;;;;;;;6.88;1.80;;;17.00;58.70;;;;;;5073447;28;20102;-76
2022/03/27 12:06:29;;;;;;;8.00;2.70;;;17.00;58.80;;;;;;5074566;28;20040;-75
2022/03/27 12:08:56;;;;;;;8.23;1.80;;;17.00;58.80;;;;;;5074794;28;20444;-77
2022/03/27 12:11:23;;;;;;;6.53;2.22;;;17.00;58.80;;;;;;5071267;28;20052;-76
2022/03/27 12:13:50;;;;;;;10.70;1.92;;;16.90;59.40;;;;;;5074339;28;20049;-75
2022/03/27 12:16:21;;;;;;;6.93;1.83;;;16.90;59.00;;;;;;5059132;28;20067;-81
2022/03/27 12:18:50;;;;;;;8.88;2.22;;;16.90;58.90;;;;;;5077846;28;20452;-76
2022/03/27 12:21:23;;;;;;;8.75;2.20;;;16.90;58.60;;;;;;5060194;28;20133;-75
2022/03/27 12:23:56;;;;;;;11.48;2.40;;;16.90;59.40;;;;;;5060248;28;20076;-78
2022/03/27 12:32:11;;;;;;;8.75;2.78;;;16.90;59.40;;;;;;5088022;28;20123;-78
2022/03/27 12:34:48;;;;;;;7.78;1.83;;;16.90;59.70;;;;;;5097527;28;20131;-80
2022/03/27 12:37:16;;;;;;;7.68;2.10;;;16.80;59.80;;;;;;5097939;28;20044;-78
2022/03/27 12:40:03;;;;;;;8.00;2.03;;;16.80;60.00;;;;;;5098139;28;20094;-77
2022/03/27 12:42:46;;;;;;;12.15;2.47;;;16.80;60.70;;;;;;5080001;28;20097;-77
2022/03/27 12:45:32;;;;;;;14.68;2.83;;;16.80;60.50;;;;;;5080274;28;20048;-75
2022/03/27 12:47:58;;;;;;;8.02;1.45;;;16.80;61.10;;;;;;5079734;28;20040;-75
2022/03/27 12:50:32;;;;;;;6.95;1.85;;;16.80;60.70;;;;;;5097495;28;20056;-78
2022/03/27 12:53:02;;;;;;;8.80;2.22;;;16.80;60.60;;;;;;5079954;28;20422;-77
2022/03/27 12:55:46;;;;;;;10.38;2.05;;;16.80;60.60;;;;;;5097352;28;20050;-76
2022/03/27 12:58:14;;;;;;;7.95;2.00;;;16.80;60.70;;;;;;5097863;28;20363;-75
2022/03/27 13:00:40;;;;;;;13.40;2.28;;;16.80;60.60;;;;;;5079982;28;20051;-79
2022/03/27 13:03:18;;;;;;;6.93;1.70;;;16.80;60.50;;;;;;5097435;28;20368;-79
2022/03/27 13:05:58;;;;;;;11.65;1.92;;;16.80;60.10;;;;;;5097551;28;20117;-79
2022/03/27 13:08:28;;;;;;;9.95;2.22;;;16.80;59.20;;;;;;5097588;28;20054;-75